Time;durP1;ratioP1;P1;durP2;ratioP2;P2;SDS_P1;SDS_P2;PMS_P1;PMS_P2;Temp;Humidity;BMP_temperature;BMP_pressure;BME280_temperature;BME280_humidity;BME280_pressure;Samples;Min_cycle;Max_cycle;Signal;HPM_P1;HPM_P2
2022/07/09 00:00:34;;;;;;;;;;;22.30;39.70;;;;;;5013442;28;20007;-71
2022/07/09 00:02:59;;;;;;;;;;;22.30;39.60;;;;;;5013343;28;20369;-74
2022/07/09 00:05:25;;;;;;;;;;;22.30;39.60;;;;;;5013006;28;20266;-73
2022/07/09 00:07:51;;;;;;;;;;;22.40;39.30;;;;;;5013151;28;19924;-71
2022/07/09 00:10:16;;;;;;;;;;;22.40;39.30;;;;;;5013232;28;20341;-73
2022/07/09 00:12:42;;;;;;;;;;;22.40;39.00;;;;;;5013008;28;19910;-71
2022/07/09 00:15:08;;;;;;;;;;;22.40;38.70;;;;;;5012931;28;19913;-71
2022/07/09 00:17:33;;;;;;;;;;;22.40;38.70;;;;;;5012937;28;20361;-71
2022/07/09 00:20:01;;;;;;;;;;;22.40;38.60;;;;;;5012984;28;20357;-72
2022/07/09 00:22:27;;;;;;;;;;;22.30;38.60;;;;;;5012833;28;19948;-72
2022/07/09 00:24:53;;;;;;;;;;;22.20;38.70;;;;;;5012848;28;19952;-75
2022/07/09 00:27:18;;;;;;;;;;;22.10;38.50;;;;;;5012806;28;19909;-74
2022/07/09 00:29:44;;;;;;;;;;;22.10;38.80;;;;;;5012996;28;20004;-72
2022/07/09 00:32:09;;;;;;;;;;;22.10;38.60;;;;;;5012766;28;20274;-71
2022/07/09 00:34:35;;;;;;;;;;;22.10;38.80;;;;;;5012752;28;19914;-71
2022/07/09 00:37:01;;;;;;;;;;;22.10;38.60;;;;;;5012613;28;19933;-74
2022/07/09 00:39:27;;;;;;;;;;;22.10;38.40;;;;;;5012941;28;19913;-72
2022/07/09 00:42:06;;;;;;;;;;;22.20;38.50;;;;;;5013117;28;19916;-73
2022/07/09 00:44:31;;;;;;;;;;;22.20;38.50;;;;;;5003155;28;20016;-69
2022/07/09 00:46:57;;;;;;;;;;;22.10;38.20;;;;;;5019085;28;19982;-69
2022/07/09 00:49:23;;;;;;;;;;;22.10;38.30;;;;;;5019923;28;19913;-67
2022/07/09 00:51:49;;;;;;;;;;;22.20;38.20;;;;;;5018411;28;19932;-62
2022/07/09 00:54:14;;;;;;;;;;;22.10;38.40;;;;;;5018404;28;19909;-61
2022/07/09 00:56:40;;;;;;;;;;;22.00;38.50;;;;;;5018191;28;20027;-59
2022/07/09 00:59:10;;;;;;;;;;;21.90;38.50;;;;;;5016054;28;19924;-61
2022/07/09 01:01:36;;;;;;;;;;;21.90;38.60;;;;;;5012448;28;19917;-59
2022/07/09 01:04:02;;;;;;;;;;;21.90;38.50;;;;;;5012265;28;19909;-58
2022/07/09 01:06:27;;;;;;;;;;;21.90;38.50;;;;;;5012203;28;19914;-61
2022/07/09 01:08:53;;;;;;;;;;;21.90;38.20;;;;;;5012364;28;19968;-63
2022/07/09 01:11:18;;;;;;;;;;;21.80;38.10;;;;;;5012362;28;19914;-60
2022/07/09 01:13:44;;;;;;;;;;;21.80;38.20;;;;;;5012236;28;19909;-65
2022/07/09 01:16:14;;;;;;;;;;;21.80;37.90;;;;;;5012218;28;19920;-62
2022/07/09 01:18:39;;;;;;;;;;;21.70;38.10;;;;;;5011896;28;19963;-60
2022/07/09 01:21:05;;;;;;;;;;;21.70;38.20;;;;;;5012542;28;19960;-59
2022/07/09 01:23:31;;;;;;;;;;;21.80;38.00;;;;;;5012448;28;19949;-59
2022/07/09 01:25:57;;;;;;;;;;;21.70;38.10;;;;;;5012131;28;19967;-66
2022/07/09 01:28:23;;;;;;;;;;;21.70;38.50;;;;;;5012061;28;19933;-59
2022/07/09 01:30:48;;;;;;;;;;;21.60;38.70;;;;;;5012216;28;20362;-61
2022/07/09 01:33:14;;;;;;;;;;;21.50;38.80;;;;;;5012249;28;19952;-64
2022/07/09 01:35:40;;;;;;;;;;;21.60;39.10;;;;;;5011880;28;20412;-60
2022/07/09 01:38:05;;;;;;;;;;;21.50;39.20;;;;;;5012071;28;20258;-61
2022/07/09 01:40:31;;;;;;;;;;;21.50;39.40;;;;;;5011948;28;19921;-66
2022/07/09 01:42:56;;;;;;;;;;;21.50;39.20;;;;;;5012301;28;20281;-62
2022/07/09 01:45:22;;;;;;;;;;;21.50;39.40;;;;;;5011816;28;19913;-60
2022/07/09 01:47:47;;;;;;;;;;;21.40;39.40;;;;;;5012072;28;19913;-64
2022/07/09 01:50:13;;;;;;;;;;;21.30;39.60;;;;;;5012201;28;19917;-61
2022/07/09 01:52:39;;;;;;;;;;;21.40;39.60;;;;;;5011595;28;19939;-60
2022/07/09 01:55:05;;;;;;;;;;;21.40;39.50;;;;;;5012025;28;19920;-61
2022/07/09 01:57:30;;;;;;;;;;;21.30;39.40;;;;;;5011876;28;20286;-61
2022/07/09 01:59:56;;;;;;;;;;;21.20;39.60;;;;;;5011985;28;20358;-61
2022/07/09 02:02:21;;;;;;;;;;;21.20;39.40;;;;;;5011684;28;20278;-61
2022/07/09 02:04:47;;;;;;;;;;;21.20;39.30;;;;;;5012063;28;20064;-67
2022/07/09 02:07:13;;;;;;;;;;;21.30;39.10;;;;;;5011854;28;19914;-60
2022/07/09 02:09:39;;;;;;;;;;;21.30;39.20;;;;;;5014967;28;20448;-61
2022/07/09 02:12:04;;;;;;;;;;;21.40;39.10;;;;;;5015292;28;19910;-60
2022/07/09 02:14:30;;;;;;;;;;;21.30;39.00;;;;;;5015244;28;19909;-72
2022/07/09 02:16:56;;;;;;;;;;;21.30;39.20;;;;;;5015132;28;20286;-71
2022/07/09 02:19:22;;;;;;;;;;;21.20;39.50;;;;;;5015181;28;19921;-74
2022/07/09 02:21:48;;;;;;;;;;;21.20;39.90;;;;;;5015108;28;19917;-68
2022/07/09 02:24:14;;;;;;;;;;;21.10;40.10;;;;;;5015249;28;20424;-71
2022/07/09 02:26:40;;;;;;;;;;;21.10;40.20;;;;;;5015046;28;19917;-72
2022/07/09 02:29:05;;;;;;;;;;;21.00;40.10;;;;;;5015140;28;19921;-70
2022/07/09 02:31:31;;;;;;;;;;;21.10;40.00;;;;;;5015286;28;19989;-73
2022/07/09 02:33:57;;;;;;;;;;;21.10;40.10;;;;;;5014965;28;19921;-73
2022/07/09 02:36:22;;;;;;;;;;;21.10;40.20;;;;;;5014959;28;20258;-73
2022/07/09 02:38:48;;;;;;;;;;;20.90;41.00;;;;;;5014659;28;19937;-71
2022/07/09 02:41:14;;;;;;;;;;;20.90;40.60;;;;;;5014791;28;19909;-71
2022/07/09 02:43:42;;;;;;;;;;;21.00;40.50;;;;;;5014849;28;19909;-69
2022/07/09 02:46:08;;;;;;;;;;;21.00;41.20;;;;;;5015320;28;19960;-73
2022/07/09 02:48:34;;;;;;;;;;;20.90;40.50;;;;;;5015208;28;19914;-72
2022/07/09 02:51:00;;;;;;;;;;;20.90;40.40;;;;;;5015066;28;20009;-70
2022/07/09 02:53:25;;;;;;;;;;;20.80;41.10;;;;;;5014582;28;19909;-73
2022/07/09 02:55:51;;;;;;;;;;;20.80;40.50;;;;;;5014410;28;20404;-73
2022/07/09 02:58:17;;;;;;;;;;;20.80;40.60;;;;;;5014549;28;20004;-70
2022/07/09 03:00:42;;;;;;;;;;;20.70;40.50;;;;;;5014302;28;19916;-67
2022/07/09 03:03:08;;;;;;;;;;;20.60;40.80;;;;;;5014398;28;19913;-60
2022/07/09 03:05:33;;;;;;;;;;;20.60;41.10;;;;;;5014064;28;19910;-61
2022/07/09 03:07:59;;;;;;;;;;;20.70;40.90;;;;;;5014157;28;19917;-59
2022/07/09 03:10:25;;;;;;;;;;;20.70;40.90;;;;;;5014237;28;19921;-58
2022/07/09 03:12:50;;;;;;;;;;;20.70;40.70;;;;;;5014059;28;19913;-60
2022/07/09 03:15:19;;;;;;;;;;;20.60;41.20;;;;;;5013847;28;19946;-60
2022/07/09 03:17:46;;;;;;;;;;;20.70;40.90;;;;;;5013965;28;19924;-60
2022/07/09 03:20:11;;;;;;;;;;;20.40;41.20;;;;;;5013429;28;20019;-66
2022/07/09 03:22:37;;;;;;;;;;;20.50;41.40;;;;;;5013975;28;19953;-61
2022/07/09 03:25:03;;;;;;;;;;;20.50;41.10;;;;;;5013869;28;19914;-59
2022/07/09 03:27:29;;;;;;;;;;;20.60;41.10;;;;;;5013971;28;19916;-58
2022/07/09 03:29:55;;;;;;;;;;;20.60;40.60;;;;;;5013796;28;19936;-62
2022/07/09 03:32:21;;;;;;;;;;;20.70;40.50;;;;;;5013718;28;20350;-60
2022/07/09 03:34:47;;;;;;;;;;;20.80;40.30;;;;;;5013958;28;19964;-65
2022/07/09 03:37:12;;;;;;;;;;;20.80;39.80;;;;;;5013699;28;20341;-61
2022/07/09 03:39:38;;;;;;;;;;;20.90;39.70;;;;;;5013841;28;20354;-61
2022/07/09 03:42:06;;;;;;;;;;;21.00;39.20;;;;;;5013429;28;19914;-59
2022/07/09 03:44:34;;;;;;;;;;;20.90;39.20;;;;;;5013562;28;19910;-62
2022/07/09 03:47:00;;;;;;;;;;;20.90;39.00;;;;;;5013873;28;20272;-58
2022/07/09 03:49:26;;;;;;;;;;;21.00;39.10;;;;;;5013410;28;20034;-61
2022/07/09 03:51:52;;;;;;;;;;;21.00;39.00;;;;;;5013553;28;19983;-68
2022/07/09 03:54:17;;;;;;;;;;;21.10;38.80;;;;;;5013372;28;19910;-65
2022/07/09 03:56:43;;;;;;;;;;;21.20;38.60;;;;;;5013436;28;19910;-67
2022/07/09 03:59:08;;;;;;;;;;;21.20;38.60;;;;;;5013093;28;19975;-65
2022/07/09 04:01:34;;;;;;;;;;;21.20;38.50;;;;;;5013445;28;19910;-68
2022/07/09 04:03:59;;;;;;;;;;;21.10;38.60;;;;;;5013497;28;20393;-63
2022/07/09 04:06:25;;;;;;;;;;;21.10;38.70;;;;;;5013162;28;19936;-61
2022/07/09 04:08:51;;;;;;;;;;;21.00;38.90;;;;;;5013093;28;20027;-68
2022/07/09 04:11:16;;;;;;;;;;;21.00;38.90;;;;;;5012610;28;19913;-63
2022/07/09 04:13:42;;;;;;;;;;;21.00;39.10;;;;;;5012910;28;20014;-63
2022/07/09 04:16:07;;;;;;;;;;;21.00;39.20;;;;;;5013074;28;19916;-65
2022/07/09 04:18:36;;;;;;;;;;;21.00;39.20;;;;;;5012940;28;19967;-63
2022/07/09 04:21:02;;;;;;;;;;;20.90;39.40;;;;;;5013048;28;19953;-60
2022/07/09 04:23:28;;;;;;;;;;;20.70;39.50;;;;;;5012856;28;19910;-61
2022/07/09 04:25:53;;;;;;;;;;;20.60;39.80;;;;;;5012932;28;19917;-71
2022/07/09 04:28:19;;;;;;;;;;;20.60;39.90;;;;;;5012891;28;20024;-72
2022/07/09 04:30:46;;;;;;;;;;;20.60;40.20;;;;;;5012723;28;20001;-73
2022/07/09 04:33:11;;;;;;;;;;;20.60;40.20;;;;;;5012359;28;19914;-74
2022/07/09 04:35:38;;;;;;;;;;;20.60;40.00;;;;;;5012582;28;20289;-72
2022/07/09 04:38:03;;;;;;;;;;;20.60;40.00;;;;;;5012717;28;20273;-71
2022/07/09 04:40:29;;;;;;;;;;;20.70;40.10;;;;;;5012742;28;19910;-73
2022/07/09 04:42:54;;;;;;;;;;;20.60;40.00;;;;;;5012683;28;19968;-72
2022/07/09 04:45:20;;;;;;;;;;;20.60;40.00;;;;;;5012510;28;19909;-74
2022/07/09 04:47:45;;;;;;;;;;;20.70;40.10;;;;;;5012512;28;19945;-71
2022/07/09 04:50:11;;;;;;;;;;;20.70;40.30;;;;;;5012574;28;19976;-73
2022/07/09 04:52:37;;;;;;;;;;;20.70;40.50;;;;;;5012396;28;20004;-72
2022/07/09 04:55:04;;;;;;;;;;;20.80;40.40;;;;;;5012340;28;19964;-77
2022/07/09 04:57:29;;;;;;;;;;;20.70;40.40;;;;;;5012139;28;19913;-69
2022/07/09 05:00:01;;;;;;;;;;;20.80;40.10;;;;;;5012542;28;19917;-75
2022/07/09 05:02:27;;;;;;;;;;;20.80;39.90;;;;;;5012401;28;20349;-69
2022/07/09 05:04:52;;;;;;;;;;;20.90;40.20;;;;;;5012374;28;19960;-73
2022/07/09 05:07:18;;;;;;;;;;;20.80;40.10;;;;;;5012530;28;19980;-69
2022/07/09 05:09:43;;;;;;;;;;;20.90;39.60;;;;;;5012128;28;19925;-71
2022/07/09 05:12:10;;;;;;;;;;;20.90;39.70;;;;;;5012126;28;19918;-69
2022/07/09 05:14:38;;;;;;;;;;;21.10;40.70;;;;;;5012185;28;20296;-71
2022/07/09 05:17:05;;;;;;;;;;;21.20;40.80;;;;;;5011746;28;20354;-75
2022/07/09 05:19:31;;;;;;;;;;;21.30;41.50;;;;;;5012178;28;19917;-73
2022/07/09 05:21:57;;;;;;;;;;;21.00;42.20;;;;;;5012053;28;20226;-69
2022/07/09 05:24:23;;;;;;;;;;;21.30;42.40;;;;;;5011979;28;19956;-70
2022/07/09 05:26:48;;;;;;;;;;;21.40;40.60;;;;;;5012050;28;20326;-68
2022/07/09 05:29:14;;;;;;;;;;;21.50;40.80;;;;;;5012300;28;19909;-66
2022/07/09 05:31:39;;;;;;;;;;;21.50;39.80;;;;;;5012250;28;20325;-69
2022/07/09 05:34:05;;;;;;;;;;;21.70;39.20;;;;;;5011968;28;19937;-69
2022/07/09 05:36:31;;;;;;;;;;;21.60;38.60;;;;;;5012176;28;19909;-71
2022/07/09 05:38:57;;;;;;;;;;;21.40;39.20;;;;;;5011936;28;19917;-66
2022/07/09 05:41:24;;;;;;;;;;;21.40;39.40;;;;;;5012061;28;19916;-69
2022/07/09 05:43:50;;;;;;;;;;;21.50;39.30;;;;;;5014347;28;19917;-59
2022/07/09 05:46:15;;;;;;;;;;;22.10;38.70;;;;;;5015922;28;19920;-68
2022/07/09 05:48:41;;;;;;;;;;;22.80;37.40;;;;;;5015640;28;19918;-69
2022/07/09 05:51:07;;;;;;;;;;;23.30;36.10;;;;;;5015657;28;19910;-68
2022/07/09 05:53:32;;;;;;;;;;;23.90;35.30;;;;;;5015611;28;19913;-65
2022/07/09 05:55:58;;;;;;;;;;;24.40;34.50;;;;;;5015451;28;20388;-70
2022/07/09 05:58:23;;;;;;;;;;;24.70;33.70;;;;;;5015749;28;19935;-71
2022/07/09 06:00:49;;;;;;;;;;;25.10;33.30;;;;;;5016097;28;19914;-68
2022/07/09 06:03:14;;;;;;;;;;;25.50;32.60;;;;;;5017860;28;19909;-66
2022/07/09 06:05:40;;;;;;;;;;;25.80;31.50;;;;;;5018938;28;19962;-68
2022/07/09 06:08:05;;;;;;;;;;;26.10;31.30;;;;;;5021594;28;19922;-67
2022/07/09 06:10:31;;;;;;;;;;;26.40;30.70;;;;;;5017990;28;19921;-62
2022/07/09 06:12:56;;;;;;;;;;;26.60;30.60;;;;;;5021827;28;19917;-65
2022/07/09 06:15:22;;;;;;;;;;;26.90;30.30;;;;;;5020199;28;19920;-65
2022/07/09 06:17:50;;;;;;;;;;;27.10;30.70;;;;;;5014362;28;19918;-64
2022/07/09 06:20:16;;;;;;;;;;;27.10;29.80;;;;;;5015421;28;19914;-63
2022/07/09 06:22:41;;;;;;;;;;;27.20;29.90;;;;;;5015355;28;19916;-62
2022/07/09 06:25:07;;;;;;;;;;;27.20;29.60;;;;;;5015103;28;19913;-61
2022/07/09 06:27:33;;;;;;;;;;;26.60;29.90;;;;;;5015486;28;20281;-61
2022/07/09 06:29:58;;;;;;;;;;;26.60;30.00;;;;;;5015270;28;20342;-68
2022/07/09 06:32:24;;;;;;;;;;;26.60;30.30;;;;;;5014950;28;20004;-67
2022/07/09 06:34:49;;;;;;;;;;;26.70;30.00;;;;;;5015112;28;20396;-72
2022/07/09 06:37:15;;;;;;;;;;;26.40;29.80;;;;;;5015039;28;19913;-69
2022/07/09 06:39:50;;;;;;;;;;;26.30;30.30;;;;;;5013595;28;19917;-69
2022/07/09 06:42:16;;;;;;;;;;;26.40;30.10;;;;;;5014811;28;19910;-64
2022/07/09 06:44:42;;;;;;;;;;;26.60;30.10;;;;;;5015045;28;20332;-77
2022/07/09 06:47:08;;;;;;;;;;;26.60;29.50;;;;;;5014847;28;20005;-71
2022/07/09 06:49:33;;;;;;;;;;;26.50;29.60;;;;;;5012597;28;19918;-76
2022/07/09 06:51:59;;;;;;;;;;;26.70;30.00;;;;;;5014238;28;20012;-73
2022/07/09 06:54:25;;;;;;;;;;;26.80;29.50;;;;;;5013433;28;20350;-76
2022/07/09 06:56:51;;;;;;;;;;;26.80;29.50;;;;;;5014063;28;19913;-64
2022/07/09 06:59:18;;;;;;;;;;;27.10;29.70;;;;;;5014127;28;19997;-65
2022/07/09 07:01:44;;;;;;;;;;;27.30;29.30;;;;;;5014207;28;20361;-63
2022/07/09 07:04:11;;;;;;;;;;;27.40;29.00;;;;;;5013942;28;19929;-67
2022/07/09 07:06:37;;;;;;;;;;;27.10;29.10;;;;;;5014347;28;19913;-61
2022/07/09 07:09:03;;;;;;;;;;;27.20;29.10;;;;;;5014217;28;19928;-63
2022/07/09 07:11:28;;;;;;;;;;;27.40;29.20;;;;;;5014476;28;19975;-62
2022/07/09 07:13:54;;;;;;;;;;;27.10;28.70;;;;;;5014360;28;19967;-62
2022/07/09 07:16:20;;;;;;;;;;;27.20;29.10;;;;;;5014369;28;19913;-65
2022/07/09 07:18:45;;;;;;;;;;;27.40;28.90;;;;;;5013926;28;19976;-66
2022/07/09 07:21:11;;;;;;;;;;;27.50;28.90;;;;;;5014343;28;20012;-63
2022/07/09 07:23:37;;;;;;;;;;;27.80;28.80;;;;;;5014456;28;19972;-66
2022/07/09 07:26:02;;;;;;;;;;;27.80;28.20;;;;;;5028567;28;19936;-62
2022/07/09 07:28:28;;;;;;;;;;;27.70;28.40;;;;;;5014229;28;20439;-66
2022/07/09 07:30:54;;;;;;;;;;;27.80;28.30;;;;;;5013791;28;20258;-65
2022/07/09 07:33:19;;;;;;;;;;;27.90;28.00;;;;;;5013862;28;19917;-63
2022/07/09 07:35:45;;;;;;;;;;;27.90;28.10;;;;;;5013542;28;20012;-64
2022/07/09 07:38:11;;;;;;;;;;;27.80;28.30;;;;;;5013918;28;19964;-65
2022/07/09 07:40:36;;;;;;;;;;;27.90;27.90;;;;;;5013750;28;19963;-63
2022/07/09 07:43:02;;;;;;;;;;;28.00;28.60;;;;;;5013712;28;19996;-65
2022/07/09 07:45:28;;;;;;;;;;;28.20;28.20;;;;;;5013318;28;19910;-68
2022/07/09 07:47:54;;;;;;;;;;;28.20;27.80;;;;;;5013708;28;20055;-64
2022/07/09 07:50:20;;;;;;;;;;;28.20;27.40;;;;;;5013478;28;19921;-66
2022/07/09 07:52:46;;;;;;;;;;;28.30;27.90;;;;;;5012124;28;19914;-62
2022/07/09 07:55:11;;;;;;;;;;;28.30;28.10;;;;;;5013261;28;19914;-63
2022/07/09 07:57:37;;;;;;;;;;;28.20;27.60;;;;;;5013301;28;20012;-62
2022/07/09 08:00:04;;;;;;;;;;;28.10;28.10;;;;;;5013471;28;19914;-65
2022/07/09 08:02:30;;;;;;;;;;;28.00;28.10;;;;;;5013164;28;19916;-64
2022/07/09 08:04:55;;;;;;;;;;;28.00;27.80;;;;;;5013052;28;19914;-63
2022/07/09 08:07:21;;;;;;;;;;;27.70;27.80;;;;;;5013099;28;19914;-63
2022/07/09 08:09:46;;;;;;;;;;;27.50;28.20;;;;;;5013042;28;20397;-62
2022/07/09 08:12:12;;;;;;;;;;;27.40;28.50;;;;;;5012946;28;19965;-65
2022/07/09 08:14:38;;;;;;;;;;;27.60;28.50;;;;;;5013161;28;19913;-65
2022/07/09 08:17:03;;;;;;;;;;;27.50;28.40;;;;;;5013863;28;19909;-65
2022/07/09 08:19:29;;;;;;;;;;;27.40;28.30;;;;;;5012982;28;19941;-64
2022/07/09 08:21:54;;;;;;;;;;;27.50;28.60;;;;;;5012155;28;19910;-65
2022/07/09 08:24:20;;;;;;;;;;;27.70;28.70;;;;;;5013116;28;19961;-64
2022/07/09 08:26:45;;;;;;;;;;;27.80;28.00;;;;;;5012844;28;19960;-63
2022/07/09 08:29:11;;;;;;;;;;;27.80;28.40;;;;;;5012881;28;19909;-63
2022/07/09 08:31:36;;;;;;;;;;;27.80;27.70;;;;;;5012747;28;20321;-64
2022/07/09 08:34:02;;;;;;;;;;;27.80;28.00;;;;;;5014961;28;19913;-65
2022/07/09 08:36:28;;;;;;;;;;;27.80;27.50;;;;;;5015701;28;19956;-67
2022/07/09 08:38:53;;;;;;;;;;;27.60;27.90;;;;;;5015783;28;19921;-65
2022/07/09 08:41:19;;;;;;;;;;;27.40;27.80;;;;;;5015904;28;19913;-64
2022/07/09 08:43:48;;;;;;;;;;;27.40;28.20;;;;;;5012793;28;20036;-64
2022/07/09 08:46:14;;;;;;;;;;;27.50;28.20;;;;;;5011626;28;19914;-62
2022/07/09 08:48:40;;;;;;;;;;;27.50;28.00;;;;;;5012488;28;19918;-70
2022/07/09 08:51:06;;;;;;;;;;;27.70;28.10;;;;;;5012594;28;20052;-68
2022/07/09 08:53:31;;;;;;;;;;;27.80;27.70;;;;;;5013028;28;19960;-69
2022/07/09 08:55:57;;;;;;;;;;;27.80;28.10;;;;;;5012599;28;20327;-68
2022/07/09 08:58:23;;;;;;;;;;;27.90;28.00;;;;;;5012477;28;19921;-70
2022/07/09 09:00:50;;;;;;;;;;;28.00;28.10;;;;;;5012394;28;20389;-66
2022/07/09 09:03:18;;;;;;;;;;;27.70;27.50;;;;;;5012425;28;19913;-64
2022/07/09 09:05:44;;;;;;;;;;;27.60;27.60;;;;;;5012234;28;20281;-69
2022/07/09 09:08:21;;;;;;;;;;;27.60;27.90;;;;;;5012123;28;19913;-64
2022/07/09 09:10:47;;;;;;;;;;;27.20;28.10;;;;;;5012343;28;19925;-64
2022/07/09 09:13:16;;;;;;;;;;;27.00;28.60;;;;;;5012153;28;19910;-71
2022/07/09 09:15:42;;;;;;;;;;;27.10;28.60;;;;;;5012121;28;19956;-65
2022/07/09 09:18:08;;;;;;;;;;;27.20;28.80;;;;;;5013649;28;19917;-64
2022/07/09 09:20:34;;;;;;;;;;;27.20;28.40;;;;;;5016546;28;19909;-69
2022/07/09 09:23:02;;;;;;;;;;;27.30;28.90;;;;;;5016325;28;19916;-63
2022/07/09 09:25:28;;;;;;;;;;;27.60;28.70;;;;;;5016018;28;19909;-62
2022/07/09 09:27:54;;;;;;;;;;;27.80;28.40;;;;;;5016207;28;20344;-65
2022/07/09 09:30:20;;;;;;;;;;;27.80;26.90;;;;;;5015952;28;19910;-63
2022/07/09 09:32:54;;;;;;;;;;;27.90;27.40;;;;;;5015871;28;20452;-62
2022/07/09 09:35:19;;;;;;;;;;;28.00;27.70;;;;;;5015919;28;19917;-63
2022/07/09 09:37:45;;;;;;;;;;;28.00;27.50;;;;;;5015872;28;19924;-62
2022/07/09 09:40:11;;;;;;;;;;;27.70;27.20;;;;;;5015755;28;19920;-63
2022/07/09 09:42:40;;;;;;;;;;;27.80;27.70;;;;;;5015565;28;19910;-63
2022/07/09 09:45:07;;;;;;;;;;;27.50;26.10;;;;;;5015578;28;19963;-62
2022/07/09 09:47:33;;;;;;;;;;;27.50;26.90;;;;;;5015622;28;19931;-62
2022/07/09 09:50:00;;;;;;;;;;;27.60;27.20;;;;;;5015633;28;19964;-70
2022/07/09 09:52:26;;;;;;;;;;;27.70;27.10;;;;;;5015575;28;19909;-69
2022/07/09 09:54:52;;;;;;;;;;;27.80;27.20;;;;;;5015610;28;19916;-66
2022/07/09 09:57:20;;;;;;;;;;;27.90;26.90;;;;;;5015521;28;19916;-68
2022/07/09 09:59:46;;;;;;;;;;;27.80;27.40;;;;;;5015556;28;20286;-63
2022/07/09 10:02:12;;;;;;;;;;;27.90;27.00;;;;;;5015632;28;19909;-67
2022/07/09 10:04:40;;;;;;;;;;;27.80;27.50;;;;;;5015387;28;19916;-68
2022/07/09 10:07:06;;;;;;;;;;;27.60;27.00;;;;;;5015480;28;20013;-64
2022/07/09 10:09:32;;;;;;;;;;;27.20;27.30;;;;;;5013911;28;20461;-64
2022/07/09 10:11:58;;;;;;;;;;;27.40;27.80;;;;;;5015481;28;20328;-71
2022/07/09 10:14:23;;;;;;;;;;;27.60;27.70;;;;;;5015286;28;19909;-62
2022/07/09 10:16:49;;;;;;;;;;;27.60;27.30;;;;;;5015157;28;19924;-64
2022/07/09 10:19:22;;;;;;;;;;;27.70;27.20;;;;;;5015143;28;19929;-66
2022/07/09 10:21:51;;;;;;;;;;;27.60;26.90;;;;;;5015049;28;19909;-68
2022/07/09 10:24:23;;;;;;;;;;;27.70;27.20;;;;;;5015197;28;20316;-63
2022/07/09 10:26:48;;;;;;;;;;;27.60;27.20;;;;;;5014931;28;20449;-62
2022/07/09 10:29:32;;;;;;;;;;;27.30;26.60;;;;;;5013937;28;19996;-63
2022/07/09 10:31:58;;;;;;;;;;;27.30;26.90;;;;;;5014875;28;19936;-64
2022/07/09 10:34:42;;;;;;;;;;;27.30;26.60;;;;;;5015036;28;20377;-64
2022/07/09 10:37:07;;;;;;;;;;;27.50;27.20;;;;;;5014679;28;19909;-63
2022/07/09 10:39:33;;;;;;;;;;;27.60;26.50;;;;;;5014866;28;19980;-63
2022/07/09 10:42:03;;;;;;;;;;;27.60;26.80;;;;;;5014680;28;20013;-65
2022/07/09 10:44:33;;;;;;;;;;;27.60;27.00;;;;;;5014788;28;20285;-63
2022/07/09 10:46:59;;;;;;;;;;;27.80;26.90;;;;;;5014649;28;19910;-63
2022/07/09 10:49:26;;;;;;;;;;;28.00;27.10;;;;;;5014585;28;19956;-62
2022/07/09 10:51:58;;;;;;;;;;;27.90;26.40;;;;;;5014497;28;19913;-63
2022/07/09 10:54:24;;;;;;;;;;;27.50;26.50;;;;;;5014281;28;19917;-63
2022/07/09 10:56:50;;;;;;;;;;;27.50;27.30;;;;;;5014443;28;19948;-62
2022/07/09 10:59:17;;;;;;;;;;;27.70;27.40;;;;;;5014254;28;19960;-64
2022/07/09 11:01:42;;;;;;;;;;;27.70;26.40;;;;;;5015672;28;19914;-69
2022/07/09 11:04:08;;;;;;;;;;;27.30;26.90;;;;;;5019356;28;20258;-66
2022/07/09 11:06:43;;;;;;;;;;;27.60;26.60;;;;;;5015488;28;19968;-64
2022/07/09 11:09:15;;;;;;;;;;;27.60;27.20;;;;;;5024391;28;19922;-64
2022/07/09 11:11:42;;;;;;;;;;;28.00;27.10;;;;;;5023428;28;20408;-65
2022/07/09 11:14:08;;;;;;;;;;;27.80;25.60;;;;;;5018266;28;19913;-64
2022/07/09 11:16:34;;;;;;;;;;;28.00;26.40;;;;;;5018751;28;19916;-64
2022/07/09 11:18:59;;;;;;;;;;;28.10;26.20;;;;;;5017730;28;19918;-66
2022/07/09 11:21:25;;;;;;;;;;;28.00;26.80;;;;;;5016678;28;20421;-63
2022/07/09 11:23:51;;;;;;;;;;;28.10;26.50;;;;;;5014120;28;20006;-67
2022/07/09 11:26:17;;;;;;;;;;;28.40;26.90;;;;;;5014125;28;19916;-64
2022/07/09 11:28:44;;;;;;;;;;;28.20;26.10;;;;;;5013787;28;19909;-63
2022/07/09 11:31:09;;;;;;;;;;;28.40;26.70;;;;;;5013888;28;19922;-63
2022/07/09 11:36:20;;;;;;;;;;;28.80;27.60;;;;;;5014515;28;19917;-66
2022/07/09 11:38:49;;;;;;;;;;;28.80;28.90;;;;;;5013838;28;19917;-63
2022/07/09 11:41:15;;;;;;;;;;;28.90;28.20;;;;;;5013453;28;19913;-64
2022/07/09 11:43:45;;;;;;;;;;;29.00;27.80;;;;;;5013926;28;19942;-65
2022/07/09 11:46:15;;;;;;;;;;;29.00;28.30;;;;;;5013757;28;20328;-62
2022/07/09 11:48:53;;;;;;;;;;;28.50;26.80;;;;;;5014540;28;19964;-64
2022/07/09 11:51:28;;;;;;;;;;;28.60;27.30;;;;;;5001183;28;19957;-66
2022/07/09 11:53:54;;;;;;;;;;;28.00;31.00;;;;;;5015297;28;19913;-65
2022/07/09 11:56:20;;;;;;;;;;;27.80;31.80;;;;;;5014500;28;19910;-65
2022/07/09 11:58:49;;;;;;;;;;;28.00;32.20;;;;;;5014779;28;19918;-63
2022/07/09 12:01:14;;;;;;;;;;;28.10;31.70;;;;;;5013908;28;19933;-66
2022/07/09 12:03:46;;;;;;;;;;;28.20;31.30;;;;;;5014284;28;19948;-62
2022/07/09 12:06:11;;;;;;;;;;;28.00;31.20;;;;;;5013577;28;19922;-63
2022/07/09 12:08:37;;;;;;;;;;;28.00;32.10;;;;;;5013116;28;19932;-64
2022/07/09 12:11:02;;;;;;;;;;;28.10;31.70;;;;;;5013137;28;19909;-65
2022/07/09 12:13:29;;;;;;;;;;;28.10;32.60;;;;;;5013439;28;19913;-63
2022/07/09 12:15:55;;;;;;;;;;;28.20;32.80;;;;;;5013023;28;20004;-65
2022/07/09 12:18:20;;;;;;;;;;;28.40;32.00;;;;;;5013223;28;20358;-66
2022/07/09 12:20:46;;;;;;;;;;;28.60;31.70;;;;;;5013457;28;19910;-61
2022/07/09 12:23:12;;;;;;;;;;;28.80;31.50;;;;;;5013126;28;19943;-63
2022/07/09 12:25:37;;;;;;;;;;;28.90;30.60;;;;;;5012870;28;19921;-63
2022/07/09 12:28:03;;;;;;;;;;;29.00;30.60;;;;;;5013029;28;20416;-62
2022/07/09 12:30:31;;;;;;;;;;;28.90;30.80;;;;;;5012860;28;19920;-64
2022/07/09 12:32:59;;;;;;;;;;;28.80;32.10;;;;;;5013646;28;20388;-61
2022/07/09 12:35:25;;;;;;;;;;;28.80;32.50;;;;;;5014764;28;20000;-63
2022/07/09 12:37:51;;;;;;;;;;;28.80;32.60;;;;;;5014862;28;19921;-68
2022/07/09 12:40:17;;;;;;;;;;;28.50;32.80;;;;;;5013598;28;20028;-64
2022/07/09 12:42:43;;;;;;;;;;;28.50;33.10;;;;;;5013135;28;19920;-62
2022/07/09 12:45:08;;;;;;;;;;;28.40;33.00;;;;;;5013094;28;19920;-65
2022/07/09 12:47:34;;;;;;;;;;;28.50;34.10;;;;;;5012730;28;20385;-65
2022/07/09 12:50:02;;;;;;;;;;;28.40;34.20;;;;;;5011024;28;19913;-63
2022/07/09 12:52:29;;;;;;;;;;;28.60;33.80;;;;;;4996400;28;19917;-62
2022/07/09 12:54:55;;;;;;;;;;;28.90;33.50;;;;;;5012336;28;19910;-62
2022/07/09 12:57:20;;;;;;;;;;;28.90;32.00;;;;;;5012785;28;19937;-63
2022/07/09 12:59:46;;;;;;;;;;;28.80;32.50;;;;;;5012246;28;20373;-62
2022/07/09 13:02:11;;;;;;;;;;;28.50;32.40;;;;;;5012565;28;19996;-62
2022/07/09 13:04:37;;;;;;;;;;;28.30;32.10;;;;;;5012231;28;20286;-62
2022/07/09 13:07:03;;;;;;;;;;;28.20;32.90;;;;;;5012199;28;19977;-64
2022/07/09 13:09:28;;;;;;;;;;;28.20;34.60;;;;;;5012329;28;19925;-63
2022/07/09 13:11:54;;;;;;;;;;;28.10;34.90;;;;;;4998408;28;20004;-63
2022/07/09 13:14:19;;;;;;;;;;;28.20;34.80;;;;;;5012236;28;20329;-62
2022/07/09 13:16:45;;;;;;;;;;;28.30;34.00;;;;;;5012226;28;19913;-66
2022/07/09 13:19:10;;;;;;;;;;;28.30;34.20;;;;;;5012216;28;20373;-65
2022/07/09 13:21:36;;;;;;;;;;;27.60;34.20;;;;;;5011985;28;19914;-62
2022/07/09 13:24:02;;;;;;;;;;;27.30;34.70;;;;;;5012016;28;19979;-62
2022/07/09 13:26:28;;;;;;;;;;;27.60;34.20;;;;;;5012181;28;19909;-62
2022/07/09 13:28:53;;;;;;;;;;;27.60;33.40;;;;;;5011771;28;20277;-66
2022/07/09 13:31:21;;;;;;;;;;;27.60;33.30;;;;;;5012100;28;20359;-68
2022/07/09 13:33:47;;;;;;;;;;;27.40;33.90;;;;;;5011686;28;19913;-63
2022/07/09 13:36:13;;;;;;;;;;;27.60;32.60;;;;;;5011784;28;19913;-64
2022/07/09 13:38:39;;;;;;;;;;;27.60;33.60;;;;;;5011807;28;19921;-63
2022/07/09 13:41:04;;;;;;;;;;;27.50;34.00;;;;;;5011950;28;19909;-63
2022/07/09 13:43:30;;;;;;;;;;;27.80;34.30;;;;;;5011978;28;19914;-63
2022/07/09 13:45:56;;;;;;;;;;;28.20;33.50;;;;;;5010260;28;20005;-63
2022/07/09 13:48:23;;;;;;;;;;;28.50;32.40;;;;;;5011404;28;19975;-69
2022/07/09 13:50:48;;;;;;;;;;;28.50;32.10;;;;;;5011895;28;19972;-65
2022/07/09 13:53:14;;;;;;;;;;;28.50;32.70;;;;;;5012180;28;19909;-62
2022/07/09 13:55:39;;;;;;;;;;;28.50;33.80;;;;;;5011688;28;20289;-65
2022/07/09 13:58:05;;;;;;;;;;;28.60;34.30;;;;;;5011914;28;20430;-68
2022/07/09 14:00:30;;;;;;;;;;;28.50;33.50;;;;;;5012044;28;19975;-62
2022/07/09 14:02:56;;;;;;;;;;;28.50;32.60;;;;;;5011839;28;19941;-62
2022/07/09 14:05:22;;;;;;;;;;;28.40;32.30;;;;;;5015079;28;20018;-63
2022/07/09 14:07:48;;;;;;;;;;;28.20;32.50;;;;;;5015143;28;19928;-63
2022/07/09 14:10:13;;;;;;;;;;;28.20;32.50;;;;;;5015040;28;19979;-64
2022/07/09 14:12:39;;;;;;;;;;;28.20;32.80;;;;;;5006549;28;19918;-60